createdAt,value
2022-08-03T00:00:33.471Z,21.3
2022-08-03T00:01:33.589Z,21.3
2022-08-03T00:02:33.806Z,21.3
2022-08-03T00:03:34.012Z,21.3
2022-08-03T00:04:34.561Z,21.3
2022-08-03T00:05:34.668Z,21.3
2022-08-03T00:06:37.446Z,21.3
2022-08-03T00:07:37.574Z,21.3
2022-08-03T00:08:40.467Z,21.3
2022-08-03T00:09:40.597Z,21.1
2022-08-03T00:10:40.718Z,21.1
2022-08-03T00:11:40.845Z,21.1
2022-08-03T00:12:40.957Z,21.1
2022-08-03T00:13:41.069Z,21.1
2022-08-03T00:14:41.946Z,21.1
2022-08-03T00:15:42.062Z,21.1
2022-08-03T00:16:42.180Z,21.1
2022-08-03T00:17:53.992Z,21.1
2022-08-03T00:18:54.315Z,21
2022-08-03T00:19:54.441Z,21
2022-08-03T00:20:54.549Z,21
2022-08-03T00:21:54.666Z,21
2022-08-03T00:22:54.771Z,21
2022-08-03T00:23:54.888Z,21
2022-08-03T00:24:54.995Z,21
2022-08-03T00:25:55.108Z,21
2022-08-03T00:26:55.222Z,21
2022-08-03T00:27:56.021Z,21
2022-08-03T00:28:56.167Z,20.9
2022-08-03T00:30:00.578Z,20.9
2022-08-03T00:31:00.794Z,20.9
2022-08-03T00:32:00.913Z,20.9
2022-08-03T00:33:01.029Z,20.9
2022-08-03T00:34:03.691Z,20.9
2022-08-03T00:35:13.495Z,20.9
2022-08-03T00:36:37.375Z,20.9
2022-08-03T00:37:42.013Z,20.9
2022-08-03T00:38:42.138Z,20.9
2022-08-03T00:39:42.249Z,20.8
2022-08-03T00:40:42.361Z,20.8
2022-08-03T00:41:42.470Z,20.8
2022-08-03T00:42:42.585Z,20.8
2022-08-03T00:43:42.692Z,20.8
2022-08-03T00:44:43.216Z,20.8
2022-08-03T00:45:43.331Z,20.8
2022-08-03T00:46:43.448Z,20.8
2022-08-03T00:47:43.561Z,20.8
2022-08-03T00:48:43.673Z,20.8
2022-08-03T00:49:43.783Z,20.6
2022-08-03T00:50:43.894Z,20.6
2022-08-03T00:51:44.003Z,20.6
2022-08-03T00:52:44.110Z,20.6
2022-08-03T00:53:44.223Z,20.6
2022-08-03T00:54:44.336Z,20.6
2022-08-03T00:55:44.448Z,20.6
2022-08-03T00:57:00.608Z,20.6
2022-08-03T00:58:00.790Z,20.6
2022-08-03T00:59:00.901Z,20.5
2022-08-03T01:00:01.011Z,20.5
2022-08-03T01:01:01.332Z,20.5
2022-08-03T01:02:01.593Z,20.5
2022-08-03T01:03:01.707Z,20.5
2022-08-03T01:04:01.819Z,20.5
2022-08-03T01:05:01.934Z,20.5
2022-08-03T01:06:02.049Z,20.5
2022-08-03T01:07:02.223Z,20.5
2022-08-03T01:08:02.349Z,20.5
2022-08-03T01:09:02.476Z,20.4
2022-08-03T01:10:02.594Z,20.4
2022-08-03T01:11:02.716Z,20.4
2022-08-03T01:12:02.822Z,20.4
2022-08-03T01:13:02.928Z,20.4
2022-08-03T01:14:19.915Z,20.4
2022-08-03T01:15:20.999Z,20.4
2022-08-03T01:16:27.982Z,20.4
2022-08-03T01:17:37.344Z,20.4
2022-08-03T01:18:37.454Z,20.4
2022-08-03T01:19:37.566Z,20.29
2022-08-03T01:20:37.678Z,20.29
2022-08-03T01:21:38.012Z,20.29
2022-08-03T01:22:38.127Z,20.29
2022-08-03T01:23:38.235Z,20.29
2022-08-03T01:24:41.013Z,20.29
2022-08-03T01:25:41.127Z,20.29
2022-08-03T01:26:41.243Z,20.29
2022-08-03T01:27:41.349Z,20.29
2022-08-03T01:28:41.470Z,20.29
2022-08-03T01:29:41.582Z,20.2
2022-08-03T01:30:41.698Z,20.2
2022-08-03T01:33:01.596Z,20.2
2022-08-03T01:34:03.329Z,20.2
2022-08-03T01:35:12.284Z,20.2
2022-08-03T01:36:12.399Z,20.2
2022-08-03T01:37:12.517Z,20.2
2022-08-03T01:38:12.688Z,20.2
2022-08-03T01:39:12.805Z,20.1
2022-08-03T01:40:12.923Z,20.1
2022-08-03T01:41:13.036Z,20.1
2022-08-03T01:42:13.239Z,20.1
2022-08-03T01:43:14.516Z,20.1
2022-08-03T01:45:34.461Z,20.1
2022-08-03T01:46:34.668Z,20.1
2022-08-03T01:47:34.781Z,20.1
2022-08-03T01:48:34.892Z,20.1
2022-08-03T01:49:35.164Z,20
2022-08-03T01:50:35.371Z,20
2022-08-03T01:52:05.438Z,20
2022-08-03T01:53:05.751Z,20
2022-08-03T01:54:05.862Z,20
2022-08-03T01:55:05.971Z,20
2022-08-03T01:56:06.082Z,20
2022-08-03T01:57:06.198Z,20
2022-08-03T01:58:07.040Z,20
2022-08-03T01:59:07.153Z,19.9
2022-08-03T02:00:07.273Z,19.9
2022-08-03T02:01:07.601Z,19.9
2022-08-03T02:02:34.551Z,19.9
2022-08-03T02:03:35.064Z,19.9
2022-08-03T02:04:35.174Z,19.9
2022-08-03T02:05:35.292Z,19.9
2022-08-03T02:07:03.245Z,19.9
2022-08-03T02:08:03.759Z,19.9
2022-08-03T02:09:03.869Z,19.79
2022-08-03T02:10:03.985Z,19.79
2022-08-03T02:11:04.100Z,19.79
2022-08-03T02:12:04.207Z,19.79
2022-08-03T02:13:04.391Z,19.79
2022-08-03T02:14:04.513Z,19.79
2022-08-03T02:15:04.630Z,19.79
2022-08-03T02:16:04.965Z,19.79
2022-08-03T02:17:05.085Z,19.79
2022-08-03T02:18:05.202Z,19.79
2022-08-03T02:19:05.311Z,19.7
2022-08-03T02:20:05.423Z,19.7
2022-08-03T02:21:11.392Z,19.7
2022-08-03T02:22:56.995Z,19.7
2022-08-03T02:23:57.106Z,19.7
2022-08-03T02:24:57.216Z,19.7
2022-08-03T02:26:01.857Z,19.7
2022-08-03T02:27:02.227Z,19.7
2022-08-03T02:28:02.338Z,19.7
2022-08-03T02:29:02.450Z,19.7
2022-08-03T02:30:02.571Z,19.7
2022-08-03T02:31:02.697Z,19.7
2022-08-03T02:32:02.823Z,19.7
2022-08-03T02:33:02.933Z,19.7
2022-08-03T02:34:03.043Z,19.7
2022-08-03T02:35:03.164Z,19.7
2022-08-03T02:36:03.273Z,19.7
2022-08-03T02:37:03.381Z,19.7
2022-08-03T02:38:03.501Z,19.7
2022-08-03T02:39:03.623Z,19.6
2022-08-03T02:40:03.748Z,19.6
2022-08-03T02:41:03.939Z,19.6
2022-08-03T02:42:04.842Z,19.6
2022-08-03T02:43:04.959Z,19.6
2022-08-03T02:44:07.492Z,19.6
2022-08-03T02:45:10.732Z,19.6
2022-08-03T02:46:12.755Z,19.6
2022-08-03T02:47:12.868Z,19.6
2022-08-03T02:48:12.986Z,19.6
2022-08-03T02:49:52.249Z,19.5
2022-08-03T02:50:52.961Z,19.5
2022-08-03T02:51:53.079Z,19.5
2022-08-03T02:52:53.224Z,19.5
2022-08-03T02:53:53.368Z,19.5
2022-08-03T02:54:53.486Z,19.5
2022-08-03T02:55:53.607Z,19.5
2022-08-03T02:56:53.720Z,19.5
2022-08-03T02:57:53.844Z,19.5
2022-08-03T02:58:53.968Z,19.4
2022-08-03T02:59:54.081Z,19.4
2022-08-03T03:00:54.380Z,19.4
2022-08-03T03:01:54.660Z,19.4
2022-08-03T03:02:54.779Z,19.4
2022-08-03T03:03:55.829Z,19.4
2022-08-03T03:05:57.428Z,19.4
2022-08-03T03:07:01.946Z,19.4
2022-08-03T03:08:18.897Z,19.4
2022-08-03T03:09:41.929Z,19.4
2022-08-03T03:10:43.470Z,19.4
2022-08-03T03:11:43.580Z,19.4
2022-08-03T03:12:43.688Z,19.4
2022-08-03T03:13:43.805Z,19.4
2022-08-03T03:14:43.913Z,19.4
2022-08-03T03:15:44.019Z,19.4
2022-08-03T03:16:44.141Z,19.4
2022-08-03T03:17:51.897Z,19.4
2022-08-03T03:18:52.008Z,19.2
2022-08-03T03:19:52.119Z,19.2
2022-08-03T03:20:52.229Z,19.2
2022-08-03T03:21:52.337Z,19.2
2022-08-03T03:22:52.449Z,19.2
2022-08-03T03:23:52.566Z,19.2
2022-08-03T03:24:52.674Z,19.2
2022-08-03T03:25:52.786Z,19.2
2022-08-03T03:26:52.896Z,19.2
2022-08-03T03:27:53.003Z,19.2
2022-08-03T03:28:53.110Z,19.2
2022-08-03T03:29:53.219Z,19.2
2022-08-03T03:30:53.722Z,19.2
2022-08-03T03:31:53.840Z,19.2
2022-08-03T03:32:53.950Z,19.2
2022-08-03T03:33:54.058Z,19.2
2022-08-03T03:34:54.170Z,19.2
2022-08-03T03:35:54.283Z,19.2
2022-08-03T03:36:54.399Z,19.2
2022-08-03T03:37:54.512Z,19.2
2022-08-03T03:38:54.623Z,19.1
2022-08-03T03:39:54.737Z,19.1
2022-08-03T03:40:54.850Z,19.1
2022-08-03T03:41:54.962Z,19.1
2022-08-03T03:42:55.076Z,19.1
2022-08-03T03:43:55.190Z,19.1
2022-08-03T03:44:55.301Z,19.1
2022-08-03T03:45:55.410Z,19.1
2022-08-03T03:46:55.515Z,19.1
2022-08-03T03:47:55.620Z,19.1
2022-08-03T03:48:55.800Z,19.1
2022-08-03T03:49:55.978Z,19.1
2022-08-03T03:50:56.087Z,19.1
2022-08-03T03:51:56.196Z,19.1
2022-08-03T03:52:56.308Z,19.1
2022-08-03T03:53:56.424Z,19.1
2022-08-03T03:55:01.603Z,19.1
2022-08-03T03:56:03.235Z,19.1
2022-08-03T03:57:03.380Z,19.1
2022-08-03T03:58:03.492Z,19.1
2022-08-03T03:59:03.609Z,19.1
2022-08-03T04:00:03.722Z,19.1
2022-08-03T04:01:03.999Z,19.1
2022-08-03T04:02:04.189Z,19.1
2022-08-03T04:03:04.307Z,19.1
2022-08-03T04:04:05.617Z,19.1
2022-08-03T04:05:05.733Z,19.1
2022-08-03T04:06:05.843Z,19.1
2022-08-03T04:07:05.962Z,19.1
2022-08-03T04:08:06.077Z,19.1
2022-08-03T04:09:06.183Z,19
2022-08-03T04:10:14.999Z,19
2022-08-03T04:11:15.244Z,19
2022-08-03T04:12:15.786Z,19
2022-08-03T04:13:16.461Z,19
2022-08-03T04:14:16.589Z,19
2022-08-03T04:15:16.699Z,19
2022-08-03T04:16:16.807Z,19
2022-08-03T04:17:16.917Z,19
2022-08-03T04:18:17.022Z,19
2022-08-03T04:19:23.231Z,18.9
2022-08-03T04:20:23.699Z,18.9
2022-08-03T04:21:23.809Z,18.9
2022-08-03T04:22:23.916Z,18.9
2022-08-03T04:23:24.032Z,18.9
2022-08-03T04:24:26.693Z,18.9
2022-08-03T04:25:26.800Z,18.9
2022-08-03T04:26:26.905Z,18.9
2022-08-03T04:27:27.017Z,18.9
2022-08-03T04:28:32.047Z,18.9
2022-08-03T04:29:32.297Z,18.9
2022-08-03T04:30:32.412Z,18.9
2022-08-03T04:31:32.547Z,18.9
2022-08-03T04:32:32.666Z,18.9
2022-08-03T04:33:32.778Z,18.9
2022-08-03T04:34:34.940Z,18.9
2022-08-03T04:36:03.342Z,18.9
2022-08-03T04:37:04.077Z,18.9
2022-08-03T04:38:04.194Z,18.9
2022-08-03T04:39:04.304Z,18.79
2022-08-03T04:40:04.418Z,18.79
2022-08-03T04:41:04.534Z,18.79
2022-08-03T04:42:09.287Z,18.79
2022-08-03T04:43:09.488Z,18.79
2022-08-03T04:44:09.599Z,18.79
2022-08-03T04:45:09.709Z,18.79
2022-08-03T04:46:09.820Z,18.79
2022-08-03T04:47:09.933Z,18.79
2022-08-03T04:48:10.049Z,18.79
2022-08-03T04:49:11.495Z,18.7
2022-08-03T04:50:18.200Z,18.7
2022-08-03T04:51:21.861Z,18.7
2022-08-03T04:52:21.975Z,18.7
2022-08-03T04:53:23.320Z,18.7
2022-08-03T04:54:23.452Z,18.7
2022-08-03T04:55:23.562Z,18.7
2022-08-03T04:56:23.665Z,18.7
2022-08-03T04:57:23.778Z,18.7
2022-08-03T04:58:23.886Z,18.7
2022-08-03T04:59:23.990Z,18.7
2022-08-03T05:00:24.105Z,18.7
2022-08-03T05:01:24.364Z,18.7
2022-08-03T05:02:24.602Z,18.7
2022-08-03T05:03:25.283Z,18.7
2022-08-03T05:04:25.395Z,18.7
2022-08-03T05:05:26.213Z,18.7
2022-08-03T05:06:55.281Z,18.7
2022-08-03T05:07:56.095Z,18.7
2022-08-03T05:08:56.448Z,18.79
2022-08-03T05:10:03.313Z,18.79
2022-08-03T05:11:03.751Z,18.79
2022-08-03T05:12:03.874Z,18.79
2022-08-03T05:13:03.985Z,18.79
2022-08-03T05:14:04.094Z,18.79
2022-08-03T05:15:04.207Z,18.79
2022-08-03T05:16:04.316Z,18.79
2022-08-03T05:17:04.417Z,18.79
2022-08-03T05:18:04.528Z,18.79
2022-08-03T05:19:04.643Z,18.79
2022-08-03T05:20:04.765Z,18.79
2022-08-03T05:21:04.891Z,18.79
2022-08-03T05:22:05.015Z,18.79
2022-08-03T05:23:05.130Z,18.79
2022-08-03T05:24:05.244Z,18.79
2022-08-03T05:25:05.386Z,18.79
2022-08-03T05:26:05.507Z,18.79
2022-08-03T05:27:05.620Z,18.79
2022-08-03T05:28:05.738Z,18.79
2022-08-03T05:29:05.855Z,18.9
2022-08-03T05:30:34.677Z,18.9
2022-08-03T05:31:34.973Z,18.9
2022-08-03T05:32:35.092Z,18.9
2022-08-03T05:33:35.204Z,18.9
2022-08-03T05:34:35.326Z,18.9
2022-08-03T05:36:04.082Z,18.9
2022-08-03T05:37:04.745Z,18.9
2022-08-03T05:38:05.891Z,18.9
2022-08-03T05:39:06.009Z,19
2022-08-03T05:40:06.128Z,19
2022-08-03T05:41:36.424Z,19
2022-08-03T05:42:37.758Z,19
2022-08-03T05:43:37.874Z,19
2022-08-03T05:44:38.043Z,19
2022-08-03T05:45:38.153Z,19
2022-08-03T05:46:38.259Z,19
2022-08-03T05:47:38.375Z,19
2022-08-03T05:48:38.492Z,19
2022-08-03T05:49:38.713Z,19.1
2022-08-03T05:50:43.049Z,19.1
2022-08-03T05:51:43.177Z,19.1
2022-08-03T05:52:43.478Z,19.1
2022-08-03T05:53:43.964Z,19.1
2022-08-03T05:54:57.783Z,19.1
2022-08-03T05:56:15.865Z,19.1
2022-08-03T05:57:17.170Z,19.1
2022-08-03T05:58:17.276Z,19.1
2022-08-03T05:59:38.734Z,19.29
2022-08-03T06:00:38.984Z,19.29
2022-08-03T06:01:39.251Z,19.29
2022-08-03T06:02:39.470Z,19.29
2022-08-03T06:03:39.578Z,19.29
2022-08-03T06:04:39.689Z,19.29
2022-08-03T06:06:00.164Z,19.29
2022-08-03T06:07:00.976Z,19.29
2022-08-03T06:08:01.097Z,19.29
2022-08-03T06:09:01.208Z,19.5
2022-08-03T06:10:38.401Z,19.5
2022-08-03T06:11:38.713Z,19.5
2022-08-03T06:12:38.842Z,19.5
2022-08-03T06:13:38.948Z,19.5
2022-08-03T06:14:39.058Z,19.5
2022-08-03T06:15:39.170Z,19.5
2022-08-03T06:16:39.285Z,19.5
2022-08-03T06:17:39.402Z,19.5
2022-08-03T06:18:39.518Z,19.5
2022-08-03T06:19:39.631Z,19.7
2022-08-03T06:20:40.060Z,19.7
2022-08-03T06:21:40.164Z,19.7
2022-08-03T06:23:00.108Z,19.7
2022-08-03T06:24:02.643Z,19.7
2022-08-03T06:25:12.553Z,19.7
2022-08-03T06:26:14.334Z,19.7
2022-08-03T06:27:14.455Z,19.7
2022-08-03T06:28:53.434Z,19.7
2022-08-03T06:29:56.482Z,19.7
2022-08-03T06:30:57.903Z,19.7
2022-08-03T06:31:58.019Z,19.7
2022-08-03T06:32:58.125Z,19.7
2022-08-03T06:34:35.520Z,19.7
2022-08-03T06:35:36.952Z,19.7
2022-08-03T06:36:41.588Z,19.7
2022-08-03T06:37:41.698Z,19.7
2022-08-03T06:38:41.821Z,19.7
2022-08-03T06:39:41.951Z,20.29
2022-08-03T06:40:42.066Z,20.29
2022-08-03T06:41:45.097Z,20.29
2022-08-03T06:42:46.313Z,20.29
2022-08-03T06:44:04.447Z,20.29
2022-08-03T06:45:04.814Z,20.29
2022-08-03T06:46:04.932Z,20.29
2022-08-03T06:47:05.050Z,20.29
2022-08-03T06:48:05.165Z,20.29
2022-08-03T06:49:05.376Z,20.6
2022-08-03T06:50:18.488Z,20.6
2022-08-03T06:52:06.987Z,20.6
2022-08-03T06:53:07.268Z,20.6
2022-08-03T06:54:07.390Z,20.6
2022-08-03T06:55:07.499Z,20.6
2022-08-03T06:56:07.613Z,20.6
2022-08-03T06:57:07.727Z,20.6
2022-08-03T06:58:07.851Z,20.6
2022-08-03T06:59:07.958Z,20.9
2022-08-03T07:00:12.765Z,20.9
2022-08-03T07:01:13.205Z,20.9
2022-08-03T07:02:19.783Z,20.9
2022-08-03T07:03:20.815Z,20.9
2022-08-03T07:04:20.932Z,20.9
2022-08-03T07:05:21.046Z,20.9
2022-08-03T07:06:21.161Z,20.9
2022-08-03T07:07:21.278Z,20.9
2022-08-03T07:08:34.585Z,20.9
2022-08-03T07:09:34.796Z,20.9
2022-08-03T07:10:34.910Z,20.9
2022-08-03T07:11:35.023Z,20.9
2022-08-03T07:12:35.140Z,20.9
2022-08-03T07:13:35.260Z,20.9
2022-08-03T07:14:35.379Z,20.9
2022-08-03T07:15:56.259Z,20.9
2022-08-03T07:16:56.903Z,20.9
2022-08-03T07:17:57.012Z,20.9
2022-08-03T07:18:57.128Z,21.5
2022-08-03T07:19:57.228Z,21.5
2022-08-03T07:20:57.346Z,21.5
2022-08-03T07:22:04.421Z,21.5
2022-08-03T07:23:04.724Z,21.5
2022-08-03T07:24:04.865Z,21.5
2022-08-03T07:25:05.744Z,21.5
2022-08-03T07:26:05.896Z,21.5
2022-08-03T07:27:06.012Z,21.5
2022-08-03T07:28:06.125Z,21.5
2022-08-03T07:29:15.650Z,21.8
2022-08-03T07:30:15.866Z,21.8
2022-08-03T07:31:15.981Z,21.8
2022-08-03T07:32:16.607Z,21.8
2022-08-03T07:33:17.426Z,21.8
2022-08-03T07:34:17.534Z,21.8
2022-08-03T07:35:25.527Z,21.8
2022-08-03T07:36:25.899Z,21.8
2022-08-03T07:37:26.014Z,21.8
2022-08-03T07:38:26.132Z,21.8
2022-08-03T07:39:26.262Z,22.2
2022-08-03T07:40:32.118Z,22.2
2022-08-03T07:41:32.532Z,22.2
2022-08-03T07:42:32.666Z,22.2
2022-08-03T07:43:32.789Z,22.2
2022-08-03T07:44:32.909Z,22.2
2022-08-03T07:45:33.171Z,22.2
2022-08-03T07:46:33.486Z,22.2
2022-08-03T07:47:36.023Z,22.2
2022-08-03T07:48:36.269Z,22.2
2022-08-03T07:49:36.512Z,22.6
2022-08-03T07:50:36.687Z,22.6
2022-08-03T07:51:36.799Z,22.6
2022-08-03T07:52:36.911Z,22.6
2022-08-03T07:53:48.061Z,22.6
2022-08-03T07:54:48.509Z,22.6
2022-08-03T07:55:48.643Z,22.6
2022-08-03T07:56:48.756Z,22.6
2022-08-03T07:57:48.870Z,22.6
2022-08-03T07:58:48.984Z,23
2022-08-03T08:00:02.773Z,23
2022-08-03T08:01:03.388Z,23
2022-08-03T08:02:03.683Z,23
2022-08-03T08:03:03.826Z,23
2022-08-03T08:04:03.943Z,23
2022-08-03T08:05:06.257Z,23
2022-08-03T08:06:08.037Z,23
2022-08-03T08:07:09.401Z,23
2022-08-03T08:08:10.167Z,23
2022-08-03T08:09:10.280Z,23.4
2022-08-03T08:10:10.458Z,23.4
2022-08-03T08:11:10.567Z,23.4
2022-08-03T08:12:16.137Z,23.4
2022-08-03T08:13:16.942Z,23.4
2022-08-03T08:14:17.062Z,23.4
2022-08-03T08:15:17.174Z,23.4
2022-08-03T08:16:17.284Z,23.4
2022-08-03T08:17:17.396Z,23.4
2022-08-03T08:18:17.507Z,23.4
2022-08-03T08:19:19.041Z,23.8
2022-08-03T08:20:31.651Z,23.8
2022-08-03T08:22:02.182Z,23.8
2022-08-03T08:23:22.327Z,23.8
2022-08-03T08:24:44.647Z,23.8
2022-08-03T08:25:44.762Z,23.8
2022-08-03T08:26:44.886Z,23.8
2022-08-03T08:28:33.035Z,23.8
2022-08-03T08:29:34.932Z,23.8
2022-08-03T08:30:35.357Z,23.8
2022-08-03T08:31:35.481Z,23.8
2022-08-03T08:32:35.593Z,23.8
2022-08-03T08:34:04.499Z,23.8
2022-08-03T08:35:05.137Z,23.8
2022-08-03T08:36:05.456Z,23.8
2022-08-03T08:37:05.559Z,23.8
2022-08-03T08:38:05.988Z,23.8
2022-08-03T08:39:06.107Z,24.6
2022-08-03T08:40:06.225Z,24.6
2022-08-03T08:41:06.341Z,24.6
2022-08-03T08:42:06.465Z,24.6
2022-08-03T08:43:07.793Z,24.6
2022-08-03T08:44:07.908Z,24.6
2022-08-03T08:45:08.015Z,24.6
2022-08-03T08:46:08.137Z,24.6
2022-08-03T08:47:08.248Z,24.6
2022-08-03T08:48:08.712Z,24.6
2022-08-03T08:49:08.955Z,25
2022-08-03T08:50:28.319Z,25
2022-08-03T08:51:59.737Z,25
2022-08-03T08:53:01.803Z,25
2022-08-03T08:54:01.922Z,25
2022-08-03T08:55:02.031Z,25
2022-08-03T08:56:02.139Z,25
2022-08-03T08:57:02.298Z,25
2022-08-03T08:58:02.470Z,25
2022-08-03T08:59:03.704Z,25.4
2022-08-03T09:00:03.829Z,25.4
2022-08-03T09:01:04.183Z,25.4
2022-08-03T09:02:04.511Z,25.4
2022-08-03T09:03:04.661Z,25.4
2022-08-03T09:04:04.768Z,25.4
2022-08-03T09:05:07.824Z,25.4
2022-08-03T09:06:08.003Z,25.4
2022-08-03T09:07:20.767Z,25.4
2022-08-03T09:08:21.116Z,25.4
2022-08-03T09:10:13.202Z,25.9
2022-08-03T09:11:14.709Z,25.9
2022-08-03T09:12:42.520Z,25.9
2022-08-03T09:13:43.213Z,25.9
2022-08-03T09:15:16.823Z,25.9
2022-08-03T09:16:17.753Z,25.9
2022-08-03T09:17:18.052Z,25.9
2022-08-03T09:18:18.301Z,25.9
2022-08-03T09:19:18.416Z,26.4
2022-08-03T09:20:18.531Z,26.4
2022-08-03T09:21:32.729Z,26.4
2022-08-03T09:22:34.598Z,26.4
2022-08-03T09:24:01.874Z,26.4
2022-08-03T09:25:35.267Z,26.4
2022-08-03T09:26:35.408Z,26.4
2022-08-03T09:27:35.525Z,26.4
2022-08-03T09:29:04.833Z,26.4
2022-08-03T09:30:35.064Z,26.4
2022-08-03T09:31:35.670Z,26.4
2022-08-03T09:32:35.817Z,26.4
2022-08-03T09:33:36.500Z,26.4
2022-08-03T09:34:36.620Z,26.4
2022-08-03T09:35:55.157Z,26.4
2022-08-03T09:36:58.126Z,26.4
2022-08-03T09:38:13.981Z,26.4
2022-08-03T09:39:14.669Z,27.4
2022-08-03T09:40:14.843Z,27.4
2022-08-03T09:41:15.025Z,27.4
2022-08-03T09:42:15.701Z,27.4
2022-08-03T09:43:15.842Z,27.4
2022-08-03T09:44:26.086Z,27.4
2022-08-03T09:45:26.521Z,27.4
2022-08-03T09:46:26.731Z,27.4
2022-08-03T09:47:28.540Z,27.4
2022-08-03T09:48:28.676Z,28.4
2022-08-03T09:49:28.927Z,28.4
2022-08-03T09:50:29.116Z,28.4
2022-08-03T09:52:29.008Z,28.4
2022-08-03T09:54:00.481Z,28.4
2022-08-03T09:55:00.797Z,28.4
2022-08-03T09:56:37.013Z,28.4
2022-08-03T09:57:37.422Z,29.4
2022-08-03T09:58:37.536Z,29.4
2022-08-03T09:59:41.398Z,29.4
2022-08-03T10:00:41.752Z,29.4
2022-08-03T10:01:42.269Z,29.4
2022-08-03T10:02:42.494Z,29.4
2022-08-03T10:04:05.043Z,29.4
2022-08-03T10:05:05.777Z,29.4
2022-08-03T10:06:05.947Z,29.4
2022-08-03T10:07:06.056Z,29.4
2022-08-03T10:08:06.175Z,30.3
2022-08-03T10:09:06.291Z,30.3
2022-08-03T10:10:32.276Z,30.3
2022-08-03T10:11:40.707Z,30.3
2022-08-03T10:12:42.589Z,30.3
2022-08-03T10:13:42.705Z,30.3
2022-08-03T10:14:42.822Z,30.3
2022-08-03T10:16:25.693Z,30.3
2022-08-03T10:17:26.318Z,31.1
2022-08-03T10:18:26.431Z,31.1
2022-08-03T10:19:26.544Z,31.1
2022-08-03T10:20:26.662Z,31.1
2022-08-03T10:21:26.781Z,31.1
2022-08-03T10:22:26.901Z,31.1
2022-08-03T10:23:33.221Z,31.1
2022-08-03T10:24:34.223Z,31.1
2022-08-03T10:25:34.333Z,31.1
2022-08-03T10:26:34.645Z,31.1
2022-08-03T10:27:34.767Z,31.9
2022-08-03T10:28:34.883Z,31.9
2022-08-03T10:29:34.997Z,31.9
2022-08-03T10:30:35.116Z,31.9
2022-08-03T10:31:35.229Z,31.9
2022-08-03T10:32:35.338Z,31.9
2022-08-03T10:33:53.252Z,31.9
2022-08-03T10:35:04.016Z,31.9
2022-08-03T10:36:21.595Z,31.9
2022-08-03T10:37:21.705Z,32.5
2022-08-03T10:38:21.824Z,32.5
2022-08-03T10:39:21.941Z,32.5
2022-08-03T10:40:48.451Z,32.5
2022-08-03T10:41:53.068Z,32.5
2022-08-03T10:42:53.216Z,32.5
2022-08-03T10:43:53.339Z,32.5
2022-08-03T10:44:53.451Z,32.5
2022-08-03T10:45:53.559Z,32.5
2022-08-03T10:46:53.674Z,32.5
2022-08-03T10:47:53.790Z,33
2022-08-03T10:48:54.084Z,33
2022-08-03T10:49:54.449Z,33
2022-08-03T10:50:54.632Z,33
2022-08-03T10:51:54.743Z,33
2022-08-03T10:52:54.853Z,33
2022-08-03T10:53:55.930Z,33
2022-08-03T10:54:58.253Z,33
2022-08-03T10:55:58.705Z,33
2022-08-03T10:57:14.322Z,33
2022-08-03T10:58:30.942Z,33
2022-08-03T10:59:31.085Z,33
2022-08-03T11:00:31.321Z,33
2022-08-03T11:02:00.469Z,33
2022-08-03T11:03:01.515Z,33
2022-08-03T11:04:09.639Z,33
2022-08-03T11:05:14.127Z,33
2022-08-03T11:06:14.742Z,33
2022-08-03T11:07:14.853Z,34.3
2022-08-03T11:08:15.109Z,34.3
2022-08-03T11:09:15.220Z,34.3
2022-08-03T11:10:15.333Z,34.3
2022-08-03T11:11:15.443Z,34.3
2022-08-03T11:12:15.598Z,34.3
2022-08-03T11:13:17.034Z,34.3
2022-08-03T11:14:17.189Z,34.3
2022-08-03T11:15:17.318Z,34.3
2022-08-03T11:16:22.213Z,34.3
2022-08-03T11:17:22.611Z,34.8
2022-08-03T11:18:27.189Z,34.8
2022-08-03T11:19:28.242Z,34.8
2022-08-03T11:20:28.377Z,34.8
2022-08-03T11:21:30.590Z,34.8
2022-08-03T11:22:30.737Z,34.8
2022-08-03T11:24:06.715Z,34.8
2022-08-03T11:25:07.203Z,34.8
2022-08-03T11:26:07.318Z,34.8
2022-08-03T11:27:07.433Z,34.8
2022-08-03T11:28:07.547Z,35.3
2022-08-03T11:29:07.654Z,35.3
2022-08-03T11:30:07.819Z,35.3
2022-08-03T11:31:07.941Z,35.3
2022-08-03T11:32:08.057Z,35.3
2022-08-03T11:33:08.178Z,35.3
2022-08-03T11:34:08.288Z,35.3
2022-08-03T11:35:08.396Z,35.3
2022-08-03T11:36:08.524Z,35.3
2022-08-03T11:37:08.640Z,35.3
2022-08-03T11:38:08.757Z,35.9
2022-08-03T11:39:08.876Z,35.9
2022-08-03T11:40:09.072Z,35.9
2022-08-03T11:41:09.265Z,35.9
2022-08-03T11:42:09.373Z,35.9
2022-08-03T11:43:09.486Z,35.9
2022-08-03T11:44:09.592Z,35.9
2022-08-03T11:45:09.696Z,35.9
2022-08-03T11:46:09.833Z,35.9
2022-08-03T11:47:09.958Z,35.9
2022-08-03T11:48:10.073Z,36.4
2022-08-03T11:49:11.437Z,36.4
2022-08-03T11:50:11.633Z,36.4
2022-08-03T11:51:13.717Z,36.4
2022-08-03T11:52:13.892Z,36.4
2022-08-03T11:53:14.014Z,36.4
2022-08-03T11:54:14.120Z,36.4
2022-08-03T11:55:14.231Z,36.4
2022-08-03T11:56:14.350Z,36.4
2022-08-03T11:57:14.467Z,36.8
2022-08-03T11:59:21.931Z,36.8
2022-08-03T12:00:22.855Z,36.8
2022-08-03T12:01:23.393Z,36.8
2022-08-03T12:02:23.537Z,36.8
2022-08-03T12:03:23.823Z,36.8
2022-08-03T12:04:24.143Z,36.8
2022-08-03T12:05:26.185Z,36.8
2022-08-03T12:06:26.306Z,36.8
2022-08-03T12:08:06.583Z,37.4
2022-08-03T12:09:07.274Z,37.4
2022-08-03T12:10:07.540Z,37.4
2022-08-03T12:11:07.739Z,37.4
2022-08-03T12:12:07.858Z,37.4
2022-08-03T12:14:52.054Z,37.4
2022-08-03T12:15:54.580Z,37.4
2022-08-03T12:16:54.708Z,37.4
2022-08-03T12:17:58.228Z,37.58
2022-08-03T12:18:58.527Z,37.58
2022-08-03T12:19:58.631Z,37.58
2022-08-03T12:20:58.729Z,37.58
2022-08-03T12:21:58.827Z,37.58
2022-08-03T12:22:58.927Z,37.58
2022-08-03T12:23:59.085Z,37.58
2022-08-03T12:24:59.201Z,37.58
2022-08-03T12:25:59.317Z,37.58
2022-08-03T12:27:00.324Z,37.58
2022-08-03T12:28:00.479Z,37.58
2022-08-03T12:29:00.596Z,37.58
2022-08-03T12:30:00.707Z,37.58
2022-08-03T12:31:01.077Z,37.58
2022-08-03T12:32:01.199Z,37.58
2022-08-03T12:33:01.342Z,37.58
2022-08-03T12:34:01.450Z,37.58
2022-08-03T12:35:02.483Z,37.58
2022-08-03T12:36:02.612Z,37.58
2022-08-03T12:37:21.803Z,37.58
2022-08-03T12:38:23.897Z,37.58
2022-08-03T12:39:24.010Z,37.58
2022-08-03T12:40:28.514Z,37.58
2022-08-03T12:41:28.853Z,37.58
2022-08-03T12:42:28.964Z,37.58
2022-08-03T12:43:39.797Z,37.58
2022-08-03T12:44:40.031Z,37.58
2022-08-03T12:45:40.153Z,37.58
2022-08-03T12:46:47.849Z,37.58
2022-08-03T12:47:48.382Z,37.7
2022-08-03T12:48:48.502Z,37.7
2022-08-03T12:49:48.610Z,37.7
2022-08-03T12:50:53.868Z,37.7
2022-08-03T12:51:54.023Z,37.7
2022-08-03T12:52:54.132Z,37.7
2022-08-03T12:53:54.239Z,37.7
2022-08-03T12:54:54.355Z,37.7
2022-08-03T12:56:06.274Z,37.7
2022-08-03T12:57:06.627Z,37.7
2022-08-03T12:58:06.740Z,37.5
2022-08-03T12:59:06.858Z,37.5
2022-08-03T13:00:29.246Z,37.5
2022-08-03T13:01:32.342Z,37.5
2022-08-03T13:02:32.636Z,37.5
2022-08-03T13:03:43.090Z,37.5
2022-08-03T13:04:45.988Z,37.5
2022-08-03T13:05:46.157Z,37.5
2022-08-03T13:06:46.260Z,37.5
2022-08-03T13:07:46.380Z,37.08
2022-08-03T13:08:46.493Z,37.08
2022-08-03T13:09:46.619Z,37.08
2022-08-03T13:10:46.737Z,37.08
2022-08-03T13:12:02.343Z,37.08
2022-08-03T13:13:02.898Z,37.08
2022-08-03T13:14:03.117Z,37.08
2022-08-03T13:15:03.233Z,37.08
2022-08-03T13:16:03.346Z,37.08
2022-08-03T13:17:03.448Z,37.08
2022-08-03T13:18:03.587Z,37.08
2022-08-03T13:19:03.755Z,37.08
2022-08-03T13:20:03.975Z,37.08
2022-08-03T13:21:04.183Z,37.08
2022-08-03T13:22:05.129Z,37.08
2022-08-03T13:23:10.771Z,37.08
2022-08-03T13:24:22.984Z,37.08
2022-08-03T13:25:23.106Z,37.08
2022-08-03T13:26:23.213Z,37.08
2022-08-03T13:28:14.560Z,37.08
2022-08-03T13:29:15.227Z,37.08
2022-08-03T13:30:30.314Z,37.08
2022-08-03T13:31:30.859Z,37.08
2022-08-03T13:32:30.971Z,37.08
2022-08-03T13:33:31.088Z,37.08
2022-08-03T13:34:31.201Z,37.08
2022-08-03T13:35:31.317Z,37.08
2022-08-03T13:37:08.733Z,37.08
2022-08-03T13:38:27.397Z,37.08
2022-08-03T13:39:32.930Z,37.08
2022-08-03T13:40:50.139Z,37.08
2022-08-03T13:41:50.269Z,37.08
2022-08-03T13:42:50.383Z,37.08
2022-08-03T13:44:28.895Z,37.08
2022-08-03T13:45:30.220Z,37.08
2022-08-03T13:46:30.349Z,37.08
2022-08-03T13:47:30.469Z,36.9
2022-08-03T13:48:37.948Z,36.9
2022-08-03T13:49:38.172Z,36.9
2022-08-03T13:50:43.271Z,36.9
2022-08-03T13:51:43.518Z,36.9
2022-08-03T13:52:43.637Z,36.9
2022-08-03T13:53:43.754Z,36.9
2022-08-03T13:54:47.316Z,36.9
2022-08-03T13:55:48.435Z,36.9
2022-08-03T13:56:48.546Z,36.9
2022-08-03T13:58:07.552Z,36.7
2022-08-03T13:59:19.326Z,36.7
2022-08-03T14:00:29.425Z,36.7
2022-08-03T14:01:55.795Z,36.7
2022-08-03T14:03:12.490Z,36.7
2022-08-03T14:04:22.622Z,36.7
2022-08-03T14:05:22.833Z,36.7
2022-08-03T14:06:22.941Z,36.7
2022-08-03T14:07:23.051Z,36.2
2022-08-03T14:08:23.163Z,36.2
2022-08-03T14:09:23.272Z,36.2